sensor_id;sensor_type;location;lat;lon;timestamp;temperature;humidity
14733;DHT22;7457;50.960;6.830;2023-08-06T00:02:19;15.00;92.00
14733;DHT22;7457;50.960;6.830;2023-08-06T00:04:45;15.00;92.20
14733;DHT22;7457;50.960;6.830;2023-08-06T00:07:10;15.00;92.20
14733;DHT22;7457;50.960;6.830;2023-08-06T00:09:36;15.00;92.20
14733;DHT22;7457;50.960;6.830;2023-08-06T00:12:02;14.90;92.50
14733;DHT22;7457;50.960;6.830;2023-08-06T00:14:28;14.90;92.70
14733;DHT22;7457;50.960;6.830;2023-08-06T00:16:53;14.90;92.90
14733;DHT22;7457;50.960;6.830;2023-08-06T00:19:19;14.90;93.10
14733;DHT22;7457;50.960;6.830;2023-08-06T00:21:45;14.90;93.20
14733;DHT22;7457;50.960;6.830;2023-08-06T00:24:10;14.80;93.30
14733;DHT22;7457;50.960;6.830;2023-08-06T00:26:36;14.80;93.40
14733;DHT22;7457;50.960;6.830;2023-08-06T00:29:01;14.80;93.40
14733;DHT22;7457;50.960;6.830;2023-08-06T00:31:27;14.80;93.60
14733;DHT22;7457;50.960;6.830;2023-08-06T00:33:53;14.70;93.50
14733;DHT22;7457;50.960;6.830;2023-08-06T00:36:18;14.70;93.60
14733;DHT22;7457;50.960;6.830;2023-08-06T00:38:44;14.70;93.70
14733;DHT22;7457;50.960;6.830;2023-08-06T00:41:10;14.70;93.80
14733;DHT22;7457;50.960;6.830;2023-08-06T00:43:36;14.60;94.00
14733;DHT22;7457;50.960;6.830;2023-08-06T00:46:01;14.60;94.10
14733;DHT22;7457;50.960;6.830;2023-08-06T00:48:27;14.60;94.30
14733;DHT22;7457;50.960;6.830;2023-08-06T00:50:53;14.60;94.40
14733;DHT22;7457;50.960;6.830;2023-08-06T00:53:19;14.60;94.60
14733;DHT22;7457;50.960;6.830;2023-08-06T00:55:45;14.60;94.70
14733;DHT22;7457;50.960;6.830;2023-08-06T00:58:12;14.60;94.90
14733;DHT22;7457;50.960;6.830;2023-08-06T01:00:38;14.60;94.90
14733;DHT22;7457;50.960;6.830;2023-08-06T01:03:04;14.60;95.00
14733;DHT22;7457;50.960;6.830;2023-08-06T01:05:30;14.60;95.10
14733;DHT22;7457;50.960;6.830;2023-08-06T01:10:44;14.60;95.20
14733;DHT22;7457;50.960;6.830;2023-08-06T01:13:30;14.70;95.20
14733;DHT22;7457;50.960;6.830;2023-08-06T01:15:58;14.70;95.20
14733;DHT22;7457;50.960;6.830;2023-08-06T01:18:25;14.70;95.20
14733;DHT22;7457;50.960;6.830;2023-08-06T01:20:51;14.70;95.20
14733;DHT22;7457;50.960;6.830;2023-08-06T01:23:18;14.70;95.20
14733;DHT22;7457;50.960;6.830;2023-08-06T01:25:49;14.70;95.20
14733;DHT22;7457;50.960;6.830;2023-08-06T01:28:32;14.70;95.10
14733;DHT22;7457;50.960;6.830;2023-08-06T01:31:03;14.80;95.00
14733;DHT22;7457;50.960;6.830;2023-08-06T01:33:31;14.70;94.90
14733;DHT22;7457;50.960;6.830;2023-08-06T01:35:57;14.70;94.90
14733;DHT22;7457;50.960;6.830;2023-08-06T01:38:24;14.70;94.90
14733;DHT22;7457;50.960;6.830;2023-08-06T01:40:50;14.80;94.90
14733;DHT22;7457;50.960;6.830;2023-08-06T01:43:15;14.80;94.90
14733;DHT22;7457;50.960;6.830;2023-08-06T01:45:41;14.80;94.80
14733;DHT22;7457;50.960;6.830;2023-08-06T01:48:07;14.80;94.80
14733;DHT22;7457;50.960;6.830;2023-08-06T01:50:32;14.80;94.70
14733;DHT22;7457;50.960;6.830;2023-08-06T01:52:58;14.80;94.60
14733;DHT22;7457;50.960;6.830;2023-08-06T01:55:23;14.80;94.50
14733;DHT22;7457;50.960;6.830;2023-08-06T01:57:49;14.80;94.40
14733;DHT22;7457;50.960;6.830;2023-08-06T02:00:15;14.80;94.40
14733;DHT22;7457;50.960;6.830;2023-08-06T02:02:40;14.80;94.30
14733;DHT22;7457;50.960;6.830;2023-08-06T02:05:06;14.90;94.20
14733;DHT22;7457;50.960;6.830;2023-08-06T02:07:32;14.90;94.00
14733;DHT22;7457;50.960;6.830;2023-08-06T02:09:57;14.90;93.90
14733;DHT22;7457;50.960;6.830;2023-08-06T02:12:23;14.90;93.80
14733;DHT22;7457;50.960;6.830;2023-08-06T02:14:49;14.90;93.70
14733;DHT22;7457;50.960;6.830;2023-08-06T02:17:15;15.00;93.70
14733;DHT22;7457;50.960;6.830;2023-08-06T02:19:40;14.90;93.70
14733;DHT22;7457;50.960;6.830;2023-08-06T02:22:08;15.00;93.60
14733;DHT22;7457;50.960;6.830;2023-08-06T02:24:34;15.00;93.60
14733;DHT22;7457;50.960;6.830;2023-08-06T02:26:59;15.00;93.60
14733;DHT22;7457;50.960;6.830;2023-08-06T02:29:25;15.00;93.50
14733;DHT22;7457;50.960;6.830;2023-08-06T02:31:51;15.00;93.50
14733;DHT22;7457;50.960;6.830;2023-08-06T02:34:17;15.00;93.40
14733;DHT22;7457;50.960;6.830;2023-08-06T02:36:42;15.00;93.40
14733;DHT22;7457;50.960;6.830;2023-08-06T02:39:08;15.00;93.40
14733;DHT22;7457;50.960;6.830;2023-08-06T02:41:33;15.00;93.50
14733;DHT22;7457;50.960;6.830;2023-08-06T02:43:59;15.00;93.60
14733;DHT22;7457;50.960;6.830;2023-08-06T02:46:25;15.00;93.60
14733;DHT22;7457;50.960;6.830;2023-08-06T02:48:50;15.00;93.70
14733;DHT22;7457;50.960;6.830;2023-08-06T02:51:16;15.00;93.70
14733;DHT22;7457;50.960;6.830;2023-08-06T02:53:41;15.00;93.90
14733;DHT22;7457;50.960;6.830;2023-08-06T02:56:07;15.00;93.90
14733;DHT22;7457;50.960;6.830;2023-08-06T02:58:33;15.00;93.90
14733;DHT22;7457;50.960;6.830;2023-08-06T03:01:03;15.00;93.90
14733;DHT22;7457;50.960;6.830;2023-08-06T03:03:33;15.00;93.80
14733;DHT22;7457;50.960;6.830;2023-08-06T03:05:59;15.00;93.80
14733;DHT22;7457;50.960;6.830;2023-08-06T03:08:25;15.00;93.80
14733;DHT22;7457;50.960;6.830;2023-08-06T03:10:51;15.00;93.80
14733;DHT22;7457;50.960;6.830;2023-08-06T03:13:18;15.00;93.80
14733;DHT22;7457;50.960;6.830;2023-08-06T03:15:52;15.00;93.90
14733;DHT22;7457;50.960;6.830;2023-08-06T03:18:18;15.00;94.10
14733;DHT22;7457;50.960;6.830;2023-08-06T03:20:44;14.90;94.40
14733;DHT22;7457;50.960;6.830;2023-08-06T03:23:10;14.90;94.70
14733;DHT22;7457;50.960;6.830;2023-08-06T03:25:36;14.80;95.10
14733;DHT22;7457;50.960;6.830;2023-08-06T03:28:02;14.80;95.30
14733;DHT22;7457;50.960;6.830;2023-08-06T03:30:28;14.80;95.50
14733;DHT22;7457;50.960;6.830;2023-08-06T03:32:53;14.80;95.60
14733;DHT22;7457;50.960;6.830;2023-08-06T03:35:19;14.80;95.80
14733;DHT22;7457;50.960;6.830;2023-08-06T03:37:45;14.70;96.00
14733;DHT22;7457;50.960;6.830;2023-08-06T03:40:10;14.70;96.10
14733;DHT22;7457;50.960;6.830;2023-08-06T03:42:36;14.60;96.40
14733;DHT22;7457;50.960;6.830;2023-08-06T03:45:02;14.50;96.60
14733;DHT22;7457;50.960;6.830;2023-08-06T03:47:28;14.50;96.70
14733;DHT22;7457;50.960;6.830;2023-08-06T03:49:54;14.40;97.10
14733;DHT22;7457;50.960;6.830;2023-08-06T03:52:19;14.40;97.30
14733;DHT22;7457;50.960;6.830;2023-08-06T03:54:45;14.40;97.50
14733;DHT22;7457;50.960;6.830;2023-08-06T03:57:11;14.40;97.60
14733;DHT22;7457;50.960;6.830;2023-08-06T03:59:36;14.30;97.60
14733;DHT22;7457;50.960;6.830;2023-08-06T04:02:02;14.30;97.70
14733;DHT22;7457;50.960;6.830;2023-08-06T04:04:28;14.30;98.00
14733;DHT22;7457;50.960;6.830;2023-08-06T04:06:53;14.30;98.00
14733;DHT22;7457;50.960;6.830;2023-08-06T04:09:19;14.30;98.30
14733;DHT22;7457;50.960;6.830;2023-08-06T04:11:45;14.30;98.40
14733;DHT22;7457;50.960;6.830;2023-08-06T04:14:10;14.30;98.40
14733;DHT22;7457;50.960;6.830;2023-08-06T04:16:36;14.30;98.50
14733;DHT22;7457;50.960;6.830;2023-08-06T04:19:02;14.30;98.70
14733;DHT22;7457;50.960;6.830;2023-08-06T04:21:27;14.30;98.80
14733;DHT22;7457;50.960;6.830;2023-08-06T04:23:53;14.30;98.90
14733;DHT22;7457;50.960;6.830;2023-08-06T04:26:18;14.30;99.00
14733;DHT22;7457;50.960;6.830;2023-08-06T04:28:44;14.40;99.10
14733;DHT22;7457;50.960;6.830;2023-08-06T04:31:10;14.40;99.20
14733;DHT22;7457;50.960;6.830;2023-08-06T04:33:35;14.40;99.40
14733;DHT22;7457;50.960;6.830;2023-08-06T04:36:01;14.40;99.40
14733;DHT22;7457;50.960;6.830;2023-08-06T04:38:27;14.40;99.50
14733;DHT22;7457;50.960;6.830;2023-08-06T04:40:52;14.40;99.60
14733;DHT22;7457;50.960;6.830;2023-08-06T04:43:18;14.40;99.70
14733;DHT22;7457;50.960;6.830;2023-08-06T04:45:51;14.40;99.90
14733;DHT22;7457;50.960;6.830;2023-08-06T04:48:18;14.50;100.00
14733;DHT22;7457;50.960;6.830;2023-08-06T04:50:48;14.50;100.00
14733;DHT22;7457;50.960;6.830;2023-08-06T04:53:15;14.50;100.00
14733;DHT22;7457;50.960;6.830;2023-08-06T04:55:41;14.50;100.00
14733;DHT22;7457;50.960;6.830;2023-08-06T04:58:08;14.60;100.00
14733;DHT22;7457;50.960;6.830;2023-08-06T05:00:34;14.70;100.00
14733;DHT22;7457;50.960;6.830;2023-08-06T05:03:00;14.70;100.00
14733;DHT22;7457;50.960;6.830;2023-08-06T05:05:27;14.80;100.00
14733;DHT22;7457;50.960;6.830;2023-08-06T05:07:54;14.80;100.00
14733;DHT22;7457;50.960;6.830;2023-08-06T05:10:20;14.90;100.00
14733;DHT22;7457;50.960;6.830;2023-08-06T05:12:45;15.00;100.00
14733;DHT22;7457;50.960;6.830;2023-08-06T05:15:11;15.00;100.00
14733;DHT22;7457;50.960;6.830;2023-08-06T05:17:37;15.00;100.00
14733;DHT22;7457;50.960;6.830;2023-08-06T05:20:03;15.10;100.00
14733;DHT22;7457;50.960;6.830;2023-08-06T05:22:28;15.00;100.00
14733;DHT22;7457;50.960;6.830;2023-08-06T05:24:54;15.00;100.00
14733;DHT22;7457;50.960;6.830;2023-08-06T05:27:20;15.00;100.00
14733;DHT22;7457;50.960;6.830;2023-08-06T05:29:45;15.00;100.00
14733;DHT22;7457;50.960;6.830;2023-08-06T05:32:11;15.00;100.00
14733;DHT22;7457;50.960;6.830;2023-08-06T05:34:37;15.00;100.00
14733;DHT22;7457;50.960;6.830;2023-08-06T05:37:03;15.00;100.00
14733;DHT22;7457;50.960;6.830;2023-08-06T05:39:29;15.00;100.00
14733;DHT22;7457;50.960;6.830;2023-08-06T05:41:55;15.00;100.00
14733;DHT22;7457;50.960;6.830;2023-08-06T05:44:21;15.00;100.00
14733;DHT22;7457;50.960;6.830;2023-08-06T05:46:49;15.00;100.00
14733;DHT22;7457;50.960;6.830;2023-08-06T05:49:15;15.00;100.00
14733;DHT22;7457;50.960;6.830;2023-08-06T05:51:41;15.10;100.00
14733;DHT22;7457;50.960;6.830;2023-08-06T05:54:07;15.10;100.00
14733;DHT22;7457;50.960;6.830;2023-08-06T05:56:32;15.20;100.00
14733;DHT22;7457;50.960;6.830;2023-08-06T05:58:58;15.20;100.00
14733;DHT22;7457;50.960;6.830;2023-08-06T06:01:24;15.30;100.00
14733;DHT22;7457;50.960;6.830;2023-08-06T06:03:49;15.40;100.00
14733;DHT22;7457;50.960;6.830;2023-08-06T06:06:15;15.40;100.00
14733;DHT22;7457;50.960;6.830;2023-08-06T06:08:42;15.50;100.00
14733;DHT22;7457;50.960;6.830;2023-08-06T06:11:07;15.50;100.00
14733;DHT22;7457;50.960;6.830;2023-08-06T06:13:33;15.40;100.00
14733;DHT22;7457;50.960;6.830;2023-08-06T06:15:58;15.40;100.00
14733;DHT22;7457;50.960;6.830;2023-08-06T06:18:24;15.40;100.00
14733;DHT22;7457;50.960;6.830;2023-08-06T06:20:50;15.30;100.00
14733;DHT22;7457;50.960;6.830;2023-08-06T06:23:15;15.30;100.00
14733;DHT22;7457;50.960;6.830;2023-08-06T06:25:49;15.30;100.00
14733;DHT22;7457;50.960;6.830;2023-08-06T06:28:14;15.30;100.00
14733;DHT22;7457;50.960;6.830;2023-08-06T06:30:42;15.30;100.00
14733;DHT22;7457;50.960;6.830;2023-08-06T06:33:08;15.40;100.00
14733;DHT22;7457;50.960;6.830;2023-08-06T06:35:34;15.40;100.00
14733;DHT22;7457;50.960;6.830;2023-08-06T06:37:59;15.40;100.00
14733;DHT22;7457;50.960;6.830;2023-08-06T06:40:25;15.40;100.00
14733;DHT22;7457;50.960;6.830;2023-08-06T06:42:51;15.40;99.90
14733;DHT22;7457;50.960;6.830;2023-08-06T06:45:17;15.30;100.00
14733;DHT22;7457;50.960;6.830;2023-08-06T06:47:42;15.30;100.00
14733;DHT22;7457;50.960;6.830;2023-08-06T06:50:08;15.30;100.00
14733;DHT22;7457;50.960;6.830;2023-08-06T06:52:34;15.40;100.00
14733;DHT22;7457;50.960;6.830;2023-08-06T06:55:00;15.40;100.00
14733;DHT22;7457;50.960;6.830;2023-08-06T06:57:26;15.40;100.00
14733;DHT22;7457;50.960;6.830;2023-08-06T06:59:51;15.40;100.00
14733;DHT22;7457;50.960;6.830;2023-08-06T07:02:17;15.40;100.00
14733;DHT22;7457;50.960;6.830;2023-08-06T07:04:43;15.40;100.00
14733;DHT22;7457;50.960;6.830;2023-08-06T07:07:08;15.40;100.00
14733;DHT22;7457;50.960;6.830;2023-08-06T07:09:34;15.40;100.00
14733;DHT22;7457;50.960;6.830;2023-08-06T07:12:00;15.40;100.00
14733;DHT22;7457;50.960;6.830;2023-08-06T07:14:28;15.40;100.00
14733;DHT22;7457;50.960;6.830;2023-08-06T07:16:54;15.40;100.00
14733;DHT22;7457;50.960;6.830;2023-08-06T07:19:19;15.50;100.00
14733;DHT22;7457;50.960;6.830;2023-08-06T07:21:45;15.50;100.00
14733;DHT22;7457;50.960;6.830;2023-08-06T07:24:11;15.60;100.00
14733;DHT22;7457;50.960;6.830;2023-08-06T07:26:37;15.70;100.00
14733;DHT22;7457;50.960;6.830;2023-08-06T07:29:03;15.80;100.00
14733;DHT22;7457;50.960;6.830;2023-08-06T07:31:28;15.80;100.00
14733;DHT22;7457;50.960;6.830;2023-08-06T07:33:54;15.90;100.00
14733;DHT22;7457;50.960;6.830;2023-08-06T07:36:20;16.00;100.00
14733;DHT22;7457;50.960;6.830;2023-08-06T07:38:46;16.10;100.00
14733;DHT22;7457;50.960;6.830;2023-08-06T07:41:12;16.20;100.00
14733;DHT22;7457;50.960;6.830;2023-08-06T07:43:38;16.30;100.00
14733;DHT22;7457;50.960;6.830;2023-08-06T07:46:04;16.40;100.00
14733;DHT22;7457;50.960;6.830;2023-08-06T07:48:30;16.50;100.00
14733;DHT22;7457;50.960;6.830;2023-08-06T07:50:55;16.50;100.00
14733;DHT22;7457;50.960;6.830;2023-08-06T07:53:22;16.60;100.00
14733;DHT22;7457;50.960;6.830;2023-08-06T07:55:51;16.70;100.00
14733;DHT22;7457;50.960;6.830;2023-08-06T07:58:18;16.80;100.00
14733;DHT22;7457;50.960;6.830;2023-08-06T08:00:44;16.80;100.00
14733;DHT22;7457;50.960;6.830;2023-08-06T08:03:12;17.00;100.00
14733;DHT22;7457;50.960;6.830;2023-08-06T08:05:39;17.00;100.00
14733;DHT22;7457;50.960;6.830;2023-08-06T08:08:04;17.10;100.00
14733;DHT22;7457;50.960;6.830;2023-08-06T08:10:31;17.20;99.50
14733;DHT22;7457;50.960;6.830;2023-08-06T08:12:57;17.20;99.30
14733;DHT22;7457;50.960;6.830;2023-08-06T08:15:24;17.20;99.10
14733;DHT22;7457;50.960;6.830;2023-08-06T08:17:52;17.20;98.70
14733;DHT22;7457;50.960;6.830;2023-08-06T08:20:18;17.20;98.80
14733;DHT22;7457;50.960;6.830;2023-08-06T08:22:44;17.30;98.80
14733;DHT22;7457;50.960;6.830;2023-08-06T08:25:09;17.30;98.60
14733;DHT22;7457;50.960;6.830;2023-08-06T08:27:35;17.30;98.40
14733;DHT22;7457;50.960;6.830;2023-08-06T08:30:01;17.30;98.40
14733;DHT22;7457;50.960;6.830;2023-08-06T08:32:27;17.30;98.40
14733;DHT22;7457;50.960;6.830;2023-08-06T08:34:52;17.30;98.60
14733;DHT22;7457;50.960;6.830;2023-08-06T08:37:18;17.30;98.60
14733;DHT22;7457;50.960;6.830;2023-08-06T08:39:44;17.40;98.40
14733;DHT22;7457;50.960;6.830;2023-08-06T08:42:10;17.40;98.10
14733;DHT22;7457;50.960;6.830;2023-08-06T08:44:37;17.40;97.80
14733;DHT22;7457;50.960;6.830;2023-08-06T08:49:37;17.40;97.50
14733;DHT22;7457;50.960;6.830;2023-08-06T08:52:04;17.40;97.70
14733;DHT22;7457;50.960;6.830;2023-08-06T08:54:37;17.30;97.70
14733;DHT22;7457;50.960;6.830;2023-08-06T08:57:04;17.30;97.50
14733;DHT22;7457;50.960;6.830;2023-08-06T08:59:30;17.30;97.60
14733;DHT22;7457;50.960;6.830;2023-08-06T09:01:56;17.30;97.70
14733;DHT22;7457;50.960;6.830;2023-08-06T09:04:23;17.30;97.70
14733;DHT22;7457;50.960;6.830;2023-08-06T09:06:54;17.40;97.60
14733;DHT22;7457;50.960;6.830;2023-08-06T09:09:42;17.30;97.30
14733;DHT22;7457;50.960;6.830;2023-08-06T09:12:14;17.30;97.10
14733;DHT22;7457;50.960;6.830;2023-08-06T09:14:41;17.30;97.30
14733;DHT22;7457;50.960;6.830;2023-08-06T09:17:07;17.20;97.30
14733;DHT22;7457;50.960;6.830;2023-08-06T09:19:33;17.20;97.00
14733;DHT22;7457;50.960;6.830;2023-08-06T09:21:59;17.20;96.60
14733;DHT22;7457;50.960;6.830;2023-08-06T09:24:24;17.10;96.50
14733;DHT22;7457;50.960;6.830;2023-08-06T09:26:51;17.00;96.80
14733;DHT22;7457;50.960;6.830;2023-08-06T09:29:17;16.90;96.70
14733;DHT22;7457;50.960;6.830;2023-08-06T09:31:43;16.80;96.40
14733;DHT22;7457;50.960;6.830;2023-08-06T09:34:20;16.70;97.00
14733;DHT22;7457;50.960;6.830;2023-08-06T09:36:51;16.60;97.80
14733;DHT22;7457;50.960;6.830;2023-08-06T09:39:19;16.60;98.20
14733;DHT22;7457;50.960;6.830;2023-08-06T09:41:46;16.60;98.70
14733;DHT22;7457;50.960;6.830;2023-08-06T09:44:19;16.70;99.00
14733;DHT22;7457;50.960;6.830;2023-08-06T09:46:49;16.70;99.40
14733;DHT22;7457;50.960;6.830;2023-08-06T09:49:15;16.80;98.90
14733;DHT22;7457;50.960;6.830;2023-08-06T09:51:41;16.80;98.00
14733;DHT22;7457;50.960;6.830;2023-08-06T09:54:08;16.80;97.60
14733;DHT22;7457;50.960;6.830;2023-08-06T09:56:38;16.70;97.50
14733;DHT22;7457;50.960;6.830;2023-08-06T09:59:07;16.50;97.10
14733;DHT22;7457;50.960;6.830;2023-08-06T10:01:36;16.30;97.10
14733;DHT22;7457;50.960;6.830;2023-08-06T10:04:04;16.00;97.40
14733;DHT22;7457;50.960;6.830;2023-08-06T10:06:33;15.80;97.90
14733;DHT22;7457;50.960;6.830;2023-08-06T10:09:00;15.70;98.30
14733;DHT22;7457;50.960;6.830;2023-08-06T10:11:26;15.50;98.90
14733;DHT22;7457;50.960;6.830;2023-08-06T10:13:58;15.50;99.40
14733;DHT22;7457;50.960;6.830;2023-08-06T10:16:26;15.40;99.50
14733;DHT22;7457;50.960;6.830;2023-08-06T10:18:53;15.30;99.60
14733;DHT22;7457;50.960;6.830;2023-08-06T10:21:19;15.20;100.00
14733;DHT22;7457;50.960;6.830;2023-08-06T10:23:54;15.20;100.00
14733;DHT22;7457;50.960;6.830;2023-08-06T10:26:20;15.20;100.00
14733;DHT22;7457;50.960;6.830;2023-08-06T10:28:45;15.20;100.00
14733;DHT22;7457;50.960;6.830;2023-08-06T10:31:11;15.20;100.00
14733;DHT22;7457;50.960;6.830;2023-08-06T10:33:47;15.20;100.00
14733;DHT22;7457;50.960;6.830;2023-08-06T10:36:14;15.10;100.00
14733;DHT22;7457;50.960;6.830;2023-08-06T10:38:50;14.90;100.00
14733;DHT22;7457;50.960;6.830;2023-08-06T10:41:23;14.90;100.00
14733;DHT22;7457;50.960;6.830;2023-08-06T10:43:49;14.80;100.00
14733;DHT22;7457;50.960;6.830;2023-08-06T10:46:29;14.70;100.00
14733;DHT22;7457;50.960;6.830;2023-08-06T10:48:54;14.70;100.00
14733;DHT22;7457;50.960;6.830;2023-08-06T10:51:20;14.60;100.00
14733;DHT22;7457;50.960;6.830;2023-08-06T10:53:47;14.60;100.00
14733;DHT22;7457;50.960;6.830;2023-08-06T10:56:20;14.60;100.00
14733;DHT22;7457;50.960;6.830;2023-08-06T10:58:53;14.50;100.00
14733;DHT22;7457;50.960;6.830;2023-08-06T11:01:18;14.50;100.00
14733;DHT22;7457;50.960;6.830;2023-08-06T11:03:45;14.50;100.00
14733;DHT22;7457;50.960;6.830;2023-08-06T11:06:17;14.40;100.00
14733;DHT22;7457;50.960;6.830;2023-08-06T11:08:49;14.40;100.00
14733;DHT22;7457;50.960;6.830;2023-08-06T11:11:16;14.40;100.00
14733;DHT22;7457;50.960;6.830;2023-08-06T11:13:46;14.40;100.00
14733;DHT22;7457;50.960;6.830;2023-08-06T11:16:20;14.40;100.00
14733;DHT22;7457;50.960;6.830;2023-08-06T11:18:46;14.50;100.00
14733;DHT22;7457;50.960;6.830;2023-08-06T11:21:13;14.50;100.00
14733;DHT22;7457;50.960;6.830;2023-08-06T11:23:40;14.50;100.00
14733;DHT22;7457;50.960;6.830;2023-08-06T11:26:07;14.60;100.00
14733;DHT22;7457;50.960;6.830;2023-08-06T11:28:33;14.60;100.00
14733;DHT22;7457;50.960;6.830;2023-08-06T11:30:58;14.70;100.00
14733;DHT22;7457;50.960;6.830;2023-08-06T11:33:28;14.90;100.00
14733;DHT22;7457;50.960;6.830;2023-08-06T11:35:58;15.00;100.00
14733;DHT22;7457;50.960;6.830;2023-08-06T11:38:28;15.10;100.00
14733;DHT22;7457;50.960;6.830;2023-08-06T11:40:54;15.20;100.00
14733;DHT22;7457;50.960;6.830;2023-08-06T11:43:20;15.30;100.00
14733;DHT22;7457;50.960;6.830;2023-08-06T11:45:49;15.30;100.00
14733;DHT22;7457;50.960;6.830;2023-08-06T11:48:15;15.30;100.00
14733;DHT22;7457;50.960;6.830;2023-08-06T11:50:40;15.30;100.00
14733;DHT22;7457;50.960;6.830;2023-08-06T11:53:06;15.40;100.00
14733;DHT22;7457;50.960;6.830;2023-08-06T11:55:32;15.50;100.00
14733;DHT22;7457;50.960;6.830;2023-08-06T11:58:02;15.60;100.00
14733;DHT22;7457;50.960;6.830;2023-08-06T12:00:29;15.70;100.00
14733;DHT22;7457;50.960;6.830;2023-08-06T12:02:54;15.80;100.00
14733;DHT22;7457;50.960;6.830;2023-08-06T12:05:23;16.00;100.00
14733;DHT22;7457;50.960;6.830;2023-08-06T12:07:54;16.10;99.50
14733;DHT22;7457;50.960;6.830;2023-08-06T12:10:21;16.10;99.30
14733;DHT22;7457;50.960;6.830;2023-08-06T12:12:47;16.20;98.50
14733;DHT22;7457;50.960;6.830;2023-08-06T12:15:13;16.20;97.80
14733;DHT22;7457;50.960;6.830;2023-08-06T12:17:39;16.10;97.30
14733;DHT22;7457;50.960;6.830;2023-08-06T12:20:06;16.10;97.30
14733;DHT22;7457;50.960;6.830;2023-08-06T12:22:33;16.00;97.20
14733;DHT22;7457;50.960;6.830;2023-08-06T12:25:05;16.00;96.90
14733;DHT22;7457;50.960;6.830;2023-08-06T12:27:36;16.00;97.10
14733;DHT22;7457;50.960;6.830;2023-08-06T12:30:02;15.90;96.60
14733;DHT22;7457;50.960;6.830;2023-08-06T12:32:29;15.80;96.50
14733;DHT22;7457;50.960;6.830;2023-08-06T12:34:55;15.70;96.40
14733;DHT22;7457;50.960;6.830;2023-08-06T12:37:21;15.50;96.60
14733;DHT22;7457;50.960;6.830;2023-08-06T12:39:47;15.40;97.20
14733;DHT22;7457;50.960;6.830;2023-08-06T12:42:12;15.20;97.40
14733;DHT22;7457;50.960;6.830;2023-08-06T12:44:38;15.20;98.10
14733;DHT22;7457;50.960;6.830;2023-08-06T12:47:04;15.10;98.50
14733;DHT22;7457;50.960;6.830;2023-08-06T12:49:29;15.00;99.60
14733;DHT22;7457;50.960;6.830;2023-08-06T12:51:57;15.00;100.00
14733;DHT22;7457;50.960;6.830;2023-08-06T12:54:25;15.10;100.00
14733;DHT22;7457;50.960;6.830;2023-08-06T12:56:50;15.20;100.00
14733;DHT22;7457;50.960;6.830;2023-08-06T12:59:17;15.30;100.00
14733;DHT22;7457;50.960;6.830;2023-08-06T13:01:43;15.40;100.00
14733;DHT22;7457;50.960;6.830;2023-08-06T13:04:09;15.50;100.00
14733;DHT22;7457;50.960;6.830;2023-08-06T13:06:35;15.70;100.00
14733;DHT22;7457;50.960;6.830;2023-08-06T13:09:11;15.80;100.00
14733;DHT22;7457;50.960;6.830;2023-08-06T13:11:38;15.90;99.60
14733;DHT22;7457;50.960;6.830;2023-08-06T13:14:06;16.00;99.10
14733;DHT22;7457;50.960;6.830;2023-08-06T13:16:33;16.10;98.80
14733;DHT22;7457;50.960;6.830;2023-08-06T13:18:59;16.10;98.40
14733;DHT22;7457;50.960;6.830;2023-08-06T13:21:30;16.20;98.30
14733;DHT22;7457;50.960;6.830;2023-08-06T13:23:56;16.10;97.30
14733;DHT22;7457;50.960;6.830;2023-08-06T13:26:22;16.10;96.70
14733;DHT22;7457;50.960;6.830;2023-08-06T13:28:47;15.90;97.30
14733;DHT22;7457;50.960;6.830;2023-08-06T13:31:14;15.80;97.50
14733;DHT22;7457;50.960;6.830;2023-08-06T13:33:40;15.80;97.70
14733;DHT22;7457;50.960;6.830;2023-08-06T13:36:06;15.70;97.70
14733;DHT22;7457;50.960;6.830;2023-08-06T13:38:32;15.60;98.20
14733;DHT22;7457;50.960;6.830;2023-08-06T13:40:57;15.50;98.10
14733;DHT22;7457;50.960;6.830;2023-08-06T13:43:24;15.50;98.30
14733;DHT22;7457;50.960;6.830;2023-08-06T13:45:50;15.40;98.10
14733;DHT22;7457;50.960;6.830;2023-08-06T13:48:15;15.30;98.20
14733;DHT22;7457;50.960;6.830;2023-08-06T13:50:41;15.20;98.50
14733;DHT22;7457;50.960;6.830;2023-08-06T13:53:07;15.20;99.80
14733;DHT22;7457;50.960;6.830;2023-08-06T13:55:32;15.20;99.60
14733;DHT22;7457;50.960;6.830;2023-08-06T13:57:58;15.30;99.90
14733;DHT22;7457;50.960;6.830;2023-08-06T14:00:23;15.30;100.00
14733;DHT22;7457;50.960;6.830;2023-08-06T14:02:49;15.60;100.00
14733;DHT22;7457;50.960;6.830;2023-08-06T14:05:15;15.60;100.00
14733;DHT22;7457;50.960;6.830;2023-08-06T14:07:40;15.80;100.00
14733;DHT22;7457;50.960;6.830;2023-08-06T14:10:07;16.00;100.00
14733;DHT22;7457;50.960;6.830;2023-08-06T14:12:34;16.00;100.00
14733;DHT22;7457;50.960;6.830;2023-08-06T14:15:00;16.00;99.10
14733;DHT22;7457;50.960;6.830;2023-08-06T14:17:25;16.00;99.40
14733;DHT22;7457;50.960;6.830;2023-08-06T14:19:51;16.00;99.00
14733;DHT22;7457;50.960;6.830;2023-08-06T14:22:17;16.00;98.80
14733;DHT22;7457;50.960;6.830;2023-08-06T14:24:42;15.90;98.40
14733;DHT22;7457;50.960;6.830;2023-08-06T14:27:08;15.90;98.10
14733;DHT22;7457;50.960;6.830;2023-08-06T14:29:34;15.80;98.00
14733;DHT22;7457;50.960;6.830;2023-08-06T14:31:59;15.80;97.80
14733;DHT22;7457;50.960;6.830;2023-08-06T14:34:25;15.60;98.10
14733;DHT22;7457;50.960;6.830;2023-08-06T14:36:51;15.60;98.40
14733;DHT22;7457;50.960;6.830;2023-08-06T14:39:16;15.60;98.90
14733;DHT22;7457;50.960;6.830;2023-08-06T14:41:42;15.60;98.90
14733;DHT22;7457;50.960;6.830;2023-08-06T14:44:07;15.70;99.10
14733;DHT22;7457;50.960;6.830;2023-08-06T14:46:33;15.80;99.00
14733;DHT22;7457;50.960;6.830;2023-08-06T14:48:59;15.90;99.00
14733;DHT22;7457;50.960;6.830;2023-08-06T14:51:24;16.00;98.70
14733;DHT22;7457;50.960;6.830;2023-08-06T14:53:50;16.10;98.50
14733;DHT22;7457;50.960;6.830;2023-08-06T14:56:16;16.20;98.50
14733;DHT22;7457;50.960;6.830;2023-08-06T14:58:42;16.30;98.30
14733;DHT22;7457;50.960;6.830;2023-08-06T15:01:08;16.50;97.90
14733;DHT22;7457;50.960;6.830;2023-08-06T15:03:33;16.60;97.40
14733;DHT22;7457;50.960;6.830;2023-08-06T15:05:59;16.70;97.20
14733;DHT22;7457;50.960;6.830;2023-08-06T15:08:25;16.80;96.60
14733;DHT22;7457;50.960;6.830;2023-08-06T15:10:51;16.80;96.20
14733;DHT22;7457;50.960;6.830;2023-08-06T15:13:18;16.90;95.80
14733;DHT22;7457;50.960;6.830;2023-08-06T15:15:43;16.80;95.60
14733;DHT22;7457;50.960;6.830;2023-08-06T15:18:10;16.80;95.50
14733;DHT22;7457;50.960;6.830;2023-08-06T15:20:36;16.90;95.60
14733;DHT22;7457;50.960;6.830;2023-08-06T15:23:02;16.90;95.20
14733;DHT22;7457;50.960;6.830;2023-08-06T15:25:28;17.00;95.10
14733;DHT22;7457;50.960;6.830;2023-08-06T15:27:54;17.00;94.70
14733;DHT22;7457;50.960;6.830;2023-08-06T15:30:19;17.00;94.60
14733;DHT22;7457;50.960;6.830;2023-08-06T15:32:46;17.10;94.20
14733;DHT22;7457;50.960;6.830;2023-08-06T15:35:13;17.10;93.80
14733;DHT22;7457;50.960;6.830;2023-08-06T15:37:38;17.10;93.50
14733;DHT22;7457;50.960;6.830;2023-08-06T15:40:08;17.00;93.40
14733;DHT22;7457;50.960;6.830;2023-08-06T15:42:33;17.00;93.40